Time;durP1;ratioP1;P1;durP2;ratioP2;P2;SDS_P1;SDS_P2;PMS_P1;PMS_P2;Temp;Humidity;BMP_temperature;BMP_pressure;BME280_temperature;BME280_humidity;BME280_pressure;Samples;Min_cycle;Max_cycle;Signal;HPM_P1;HPM_P2
2021/07/28 00:01:06;;;;;;;7.10;5.60;;;;;;;17.99;100.00;95678.97;5031215;28;20497;-75
2021/07/28 00:03:33;;;;;;;6.60;5.83;;;;;;;18.03;100.00;95680.34;5031438;28;20415;-75
2021/07/28 00:05:58;;;;;;;6.70;6.05;;;;;;;17.75;100.00;95687.31;5031114;28;20410;-75
2021/07/28 00:08:24;;;;;;;7.68;6.30;;;;;;;17.81;100.00;95689.38;5013632;28;20418;-75
2021/07/28 00:10:49;;;;;;;7.27;6.17;;;;;;;17.83;100.00;95692.66;5031322;28;20947;-74
2021/07/28 00:13:15;;;;;;;10.33;6.50;;;;;;;17.82;100.00;95696.25;5013215;28;20419;-74
2021/07/28 00:15:41;;;;;;;10.70;7.38;;;;;;;17.70;100.00;95692.13;5030850;28;20419;-74
2021/07/28 00:18:14;;;;;;;8.75;7.10;;;;;;;17.54;100.00;95682.25;5031169;28;20928;-74
2021/07/28 00:23:16;;;;;;;7.65;6.90;;;;;;;17.56;100.00;95685.53;5031411;28;20427;-74
2021/07/28 00:25:42;;;;;;;8.60;7.03;;;;;;;17.59;100.00;95680.03;5030791;28;20821;-75
2021/07/28 00:28:08;;;;;;;7.68;6.57;;;;;;;17.59;100.00;95671.34;5030817;28;20423;-74
2021/07/28 00:30:33;;;;;;;10.23;7.37;;;;;;;17.48;100.00;95677.56;5051466;28;20413;-75
2021/07/28 00:32:59;;;;;;;10.10;7.85;;;;;;;17.34;100.00;95685.88;5035892;28;20475;-75
2021/07/28 00:35:25;;;;;;;10.90;7.87;;;;;;;17.39;100.00;95679.25;5052212;28;20831;-75
2021/07/28 00:37:51;;;;;;;8.05;7.25;;;;;;;17.34;100.00;95672.78;5050998;28;20788;-75
2021/07/28 00:40:17;;;;;;;9.57;7.40;;;;;;;17.38;100.00;95674.97;5050805;28;20414;-75
2021/07/28 00:42:43;;;;;;;7.95;7.15;;;;;;;17.49;100.00;95673.16;5050453;28;20415;-75
2021/07/28 00:45:09;;;;;;;8.63;6.85;;;;;;;17.62;100.00;95674.50;5050327;28;20540;-75
2021/07/28 00:47:35;;;;;;;6.97;6.20;;;;;;;17.73;100.00;95675.31;5050860;28;20470;-74
2021/07/28 00:50:01;;;;;;;8.17;6.63;;;;;;;17.86;100.00;95686.31;5032792;28;20814;-75
2021/07/28 00:52:29;;;;;;;7.50;6.40;;;;;;;18.12;100.00;95686.50;5050307;28;20960;-75
2021/07/28 00:54:56;;;;;;;8.25;6.60;;;;;;;18.03;100.00;95690.81;5050490;28;20478;-75
2021/07/28 00:57:21;;;;;;;8.52;6.70;;;;;;;17.99;100.00;95689.47;5050501;28;20882;-75
2021/07/28 00:59:47;;;;;;;8.15;6.55;;;;;;;17.97;100.00;95695.81;5050464;28;20420;-75
2021/07/28 01:02:13;;;;;;;11.05;7.22;;;;;;;17.94;100.00;95691.66;5050375;28;20930;-74
2021/07/28 01:04:38;;;;;;;7.47;6.57;;;;;;;17.86;100.00;95688.94;5050460;28;20413;-75
2021/07/28 01:07:04;;;;;;;7.17;5.93;;;;;;;17.89;100.00;95688.66;5050162;28;20444;-75
2021/07/28 01:09:30;;;;;;;6.93;6.23;;;;;;;17.85;100.00;95697.78;5050322;28;20451;-75
2021/07/28 01:12:03;;;;;;;8.50;6.07;;;;;;;17.91;100.00;95684.13;5064017;23;20423;-76
2021/07/28 01:14:29;;;;;;;7.75;6.35;;;;;;;17.83;100.00;95690.03;5050457;28;20918;-74
2021/07/28 01:16:55;;;;;;;11.10;6.10;;;;;;;17.86;100.00;95679.28;5050094;28;20424;-74
2021/07/28 01:19:26;;;;;;;7.43;5.22;;;;;;;17.83;100.00;95679.56;5050245;28;20460;-75
2021/07/28 01:21:52;;;;;;;13.35;5.57;;;;;;;17.55;100.00;95672.59;5050413;28;20448;-74
2021/07/28 01:24:20;;;;;;;5.97;5.28;;;;;;;17.57;100.00;95673.28;5050374;28;20421;-74
2021/07/28 01:26:46;;;;;;;7.30;5.40;;;;;;;17.45;100.00;95670.00;5049822;28;20451;-74
2021/07/28 01:29:12;;;;;;;6.63;5.30;;;;;;;17.57;100.00;95668.84;5048676;28;20992;-74
2021/07/28 01:31:39;;;;;;;5.20;4.70;;;;;;;17.55;100.00;95670.00;5050223;28;20508;-74
2021/07/28 01:34:06;;;;;;;5.45;4.95;;;;;;;17.37;100.00;95673.31;5048974;28;20428;-74
2021/07/28 01:36:33;;;;;;;6.93;5.18;;;;;;;17.37;100.00;95675.13;5048706;28;20417;-74
2021/07/28 01:38:59;;;;;;;7.85;5.43;;;;;;;17.42;100.00;95672.88;5050043;28;20459;-74
2021/07/28 01:41:26;;;;;;;6.20;4.77;;;;;;;17.47;100.00;95678.53;5050002;28;20861;-75
2021/07/28 01:43:51;;;;;;;6.05;4.65;;;;;;;17.53;100.00;95679.75;5050128;28;20421;-75
2021/07/28 01:46:18;;;;;;;6.00;5.13;;;;;;;17.59;100.00;95681.81;5049844;28;20425;-75
2021/07/28 01:48:44;;;;;;;6.15;5.53;;;;;;;17.60;100.00;95673.00;5050096;28;20417;-74
2021/07/28 01:51:09;;;;;;;6.95;5.00;;;;;;;17.51;100.00;95674.69;5050412;28;20432;-74
2021/07/28 01:53:36;;;;;;;7.13;5.22;;;;;;;17.47;100.00;95675.94;5049843;28;20776;-74
2021/07/28 01:56:01;;;;;;;5.30;4.80;;;;;;;17.46;100.00;95671.63;5049660;28;20463;-75
2021/07/28 01:58:28;;;;;;;6.90;5.00;;;;;;;17.39;100.00;95675.78;5047719;28;20429;-74
2021/07/28 02:00:54;;;;;;;5.72;5.13;;;;;;;17.42;100.00;95680.75;5030162;28;20423;-75
2021/07/28 02:03:20;;;;;;;5.50;4.85;;;;;;;17.33;100.00;95666.72;5028792;28;20425;-74
2021/07/28 02:05:45;;;;;;;5.90;4.85;;;;;;;17.22;100.00;95660.81;5031990;28;20912;-74
2021/07/28 02:08:12;;;;;;;5.30;4.40;;;;;;;17.16;100.00;95675.25;5032082;28;20473;-74
2021/07/28 02:10:39;;;;;;;6.37;5.10;;;;;;;17.21;100.00;95678.31;5032276;28;21002;-74
2021/07/28 02:13:06;;;;;;;4.80;4.40;;;;;;;17.23;100.00;95673.75;5032094;28;20474;-75
2021/07/28 02:15:35;;;;;;;5.05;4.22;;;;;;;17.13;100.00;95679.00;5033299;28;20427;-74
2021/07/28 02:18:01;;;;;;;4.88;4.38;;;;;;;17.07;100.00;95678.72;5033246;28;20506;-75
2021/07/28 02:20:28;;;;;;;5.70;4.43;;;;;;;17.03;100.00;95669.50;5033426;28;20506;-74
2021/07/28 02:22:53;;;;;;;5.15;4.47;;;;;;;17.04;100.00;95671.16;5033210;28;20836;-75
2021/07/28 02:25:19;;;;;;;5.53;4.70;;;;;;;17.15;100.00;95671.00;5031631;28;20462;-74
2021/07/28 02:27:45;;;;;;;6.75;4.63;;;;;;;17.21;100.00;95669.63;5031969;28;20430;-75
2021/07/28 02:30:12;;;;;;;5.03;4.20;;;;;;;17.27;100.00;95666.44;5033052;28;20453;-74
2021/07/28 02:32:40;;;;;;;4.60;4.10;;;;;;;17.26;100.00;95670.84;5033112;28;20905;-75
2021/07/28 02:35:06;;;;;;;5.80;4.13;;;;;;;17.29;100.00;95664.53;5031800;28;20481;-75
2021/07/28 02:37:32;;;;;;;7.07;4.53;;;;;;;17.08;100.00;95672.53;5031440;28;20513;-74
2021/07/28 02:39:58;;;;;;;14.27;4.73;;;;;;;17.02;100.00;95668.69;5031839;28;20450;-75
2021/07/28 02:42:23;;;;;;;7.40;4.80;;;;;;;16.88;100.00;95666.47;5032824;28;20415;-75
2021/07/28 02:44:49;;;;;;;5.53;4.50;;;;;;;16.84;100.00;95670.34;5031492;28;20439;-74
2021/07/28 02:47:14;;;;;;;4.57;3.90;;;;;;;16.82;100.00;95674.84;5031404;28;20509;-74
2021/07/28 02:49:41;;;;;;;4.47;3.65;;;;;;;16.90;100.00;95675.81;5031422;28;20461;-74
2021/07/28 02:52:07;;;;;;;8.18;4.15;;;;;;;16.87;100.00;95675.25;5032601;28;20418;-74
2021/07/28 02:54:32;;;;;;;5.75;4.65;;;;;;;16.89;100.00;95670.72;5031435;28;20754;-74
2021/07/28 02:56:58;;;;;;;5.07;4.13;;;;;;;16.87;100.00;95670.03;5032415;28;20776;-75
2021/07/28 02:59:23;;;;;;;8.90;4.67;;;;;;;16.85;100.00;95664.13;5051550;28;20430;-74
2021/07/28 03:01:49;;;;;;;7.23;4.93;;;;;;;16.84;100.00;95655.47;5071147;28;20531;-74
2021/07/28 03:04:14;;;;;;;5.57;4.40;;;;;;;16.92;100.00;95652.97;5071269;28;20438;-74
2021/07/28 03:06:41;;;;;;;6.95;4.53;;;;;;;16.75;100.00;95647.59;5070789;28;20908;-74
2021/07/28 03:09:07;;;;;;;4.85;3.97;;;;;;;16.70;100.00;95645.38;5072496;28;20399;-74
2021/07/28 03:11:32;;;;;;;6.68;4.60;;;;;;;16.63;100.00;95645.09;5071346;28;20423;-74
2021/07/28 03:13:58;;;;;;;7.07;4.20;;;;;;;16.57;100.00;95652.63;5072149;28;20419;-74
2021/07/28 03:16:23;;;;;;;9.03;4.63;;;;;;;16.50;100.00;95657.59;5070793;28;20490;-75
2021/07/28 03:18:49;;;;;;;6.70;4.50;;;;;;;16.21;100.00;95655.75;5072028;28;20423;-74
2021/07/28 03:21:14;;;;;;;6.63;4.80;;;;;;;16.19;100.00;95649.00;5070724;28;20430;-74
2021/07/28 03:23:41;;;;;;;6.28;4.35;;;;;;;16.29;100.00;95660.31;5071964;28;20476;-74
2021/07/28 03:26:07;;;;;;;4.70;3.78;;;;;;;16.49;100.00;95660.34;5070490;28;20446;-74
2021/07/28 03:28:33;;;;;;;3.70;3.30;;;;;;;16.35;100.00;95658.94;5069250;28;20408;-74
2021/07/28 03:30:58;;;;;;;5.47;3.95;;;;;;;16.16;100.00;95663.16;5051914;28;20512;-74
2021/07/28 03:33:24;;;;;;;5.20;4.00;;;;;;;16.10;100.00;95663.69;5050676;28;20850;-74
2021/07/28 03:35:51;;;;;;;7.13;4.25;;;;;;;16.19;100.00;95668.09;5051464;28;20420;-74
2021/07/28 03:38:16;;;;;;;5.80;4.53;;;;;;;16.28;100.00;95658.66;5050429;28;20588;-74
2021/07/28 03:40:43;;;;;;;5.97;4.35;;;;;;;16.30;100.00;95655.91;5051805;28;20417;-74
2021/07/28 03:43:09;;;;;;;5.00;4.50;;;;;;;16.31;100.00;95663.59;5051600;28;20444;-74
2021/07/28 03:45:34;;;;;;;5.43;4.75;;;;;;;16.24;100.00;95659.91;5051413;28;20416;-74
2021/07/28 03:48:00;;;;;;;7.23;5.00;;;;;;;16.30;100.00;95654.13;5050357;28;20413;-74
2021/07/28 03:50:26;;;;;;;18.48;4.93;;;;;;;16.17;100.00;95664.81;5051448;28;20425;-74
2021/07/28 03:52:51;;;;;;;39.47;5.50;;;;;;;16.02;100.00;95666.16;5051453;28;20417;-74
2021/07/28 03:55:17;;;;;;;55.27;6.13;;;;;;;15.82;100.00;95678.28;5051230;28;20445;-74
2021/07/28 03:57:43;;;;;;;11.68;4.50;;;;;;;15.88;100.00;95671.72;5051742;28;20405;-74
2021/07/28 04:00:10;;;;;;;13.65;3.95;;;;;;;15.93;100.00;95661.69;5051217;28;20989;-74
2021/07/28 04:02:35;;;;;;;35.03;5.87;;;;;;;15.84;100.00;95668.53;5051225;28;20417;-75
2021/07/28 04:05:02;;;;;;;6.53;4.77;;;;;;;15.94;100.00;95689.47;5051174;28;20409;-73
2021/07/28 04:07:28;;;;;;;14.52;4.55;;;;;;;15.81;100.00;95684.47;5051214;28;20894;-73
2021/07/28 04:09:53;;;;;;;8.30;4.30;;;;;;;15.84;100.00;95684.22;5049978;28;20441;-72
2021/07/28 04:12:19;;;;;;;11.63;4.63;;;;;;;15.96;100.00;95679.72;5050773;28;20890;-73
2021/07/28 04:14:45;;;;;;;5.60;4.40;;;;;;;16.11;100.00;95680.19;5051096;28;20417;-73
2021/07/28 04:17:12;;;;;;;6.20;4.55;;;;;;;16.18;100.00;95678.72;5049552;28;20511;-74
2021/07/28 04:19:37;;;;;;;5.50;4.57;;;;;;;16.15;100.00;95686.81;5049621;28;20779;-73
2021/07/28 04:22:03;;;;;;;7.30;5.03;;;;;;;16.10;100.00;95674.16;5050775;28;20414;-74
2021/07/28 04:24:28;;;;;;;5.53;4.47;;;;;;;16.17;100.00;95666.59;5051159;28;20409;-73
2021/07/28 04:26:54;;;;;;;4.50;3.90;;;;;;;16.17;100.00;95674.44;5050557;28;20409;-74
2021/07/28 04:29:19;;;;;;;8.27;4.77;;;;;;;16.08;100.00;95677.84;5050263;28;20409;-74
2021/07/28 04:31:46;;;;;;;4.67;4.03;;;;;;;16.13;100.00;95675.66;5050735;28;20421;-74
2021/07/28 04:34:11;;;;;;;4.53;4.13;;;;;;;16.17;100.00;95658.78;5050710;28;20413;-74
2021/07/28 04:36:37;;;;;;;6.63;4.30;;;;;;;16.20;100.00;95646.25;5050482;28;20855;-73
2021/07/28 04:39:02;;;;;;;4.25;3.85;;;;;;;16.25;100.00;95652.88;5050668;28;20453;-74
2021/07/28 04:41:28;;;;;;;6.03;4.43;;;;;;;16.33;100.00;95655.63;5049402;28;20413;-74
2021/07/28 04:43:53;;;;;;;4.87;4.30;;;;;;;16.32;100.00;95646.97;5049345;28;20927;-74
2021/07/28 04:46:20;;;;;;;6.07;4.43;;;;;;;16.33;100.00;95655.63;5050499;28;20416;-73
2021/07/28 04:48:46;;;;;;;4.70;4.30;;;;;;;16.30;100.00;95664.56;5050501;28;20409;-74
2021/07/28 04:51:12;;;;;;;5.85;4.30;;;;;;;16.09;100.00;95682.09;5050591;28;20409;-74
2021/07/28 04:53:37;;;;;;;5.10;4.50;;;;;;;16.08;100.00;95680.44;5050447;28;20416;-74
2021/07/28 04:56:03;;;;;;;6.00;4.57;;;;;;;16.03;100.00;95691.31;5050605;28;20415;-73
2021/07/28 04:58:28;;;;;;;5.85;4.35;;;;;;;16.00;100.00;95691.56;5050328;28;20433;-74
2021/07/28 05:00:54;;;;;;;6.68;4.43;;;;;;;15.85;100.00;95695.47;5050617;28;20440;-74
2021/07/28 05:03:20;;;;;;;6.47;4.77;;;;;;;15.57;100.00;95695.16;5050204;28;20420;-74
2021/07/28 05:05:46;;;;;;;5.50;4.60;;;;;;;15.72;100.00;95696.53;5048941;28;20421;-72
2021/07/28 05:08:12;;;;;;;5.15;4.32;;;;;;;15.82;100.00;95688.72;5050383;28;20488;-72
2021/07/28 05:10:37;;;;;;;8.03;4.80;;;;;;;15.82;100.00;95688.72;5049925;28;20520;-72
2021/07/28 05:13:04;;;;;;;6.30;4.63;;;;;;;15.69;100.00;95683.72;5046717;28;20420;-73
2021/07/28 05:15:30;;;;;;;7.75;5.13;;;;;;;15.87;100.00;95681.34;5065947;28;20423;-75
2021/07/28 05:17:55;;;;;;;7.25;4.90;;;;;;;15.94;100.00;95672.03;5069010;28;20937;-75
2021/07/28 05:20:21;;;;;;;6.10;4.88;;;;;;;15.93;100.00;95688.63;5070363;28;20773;-75
2021/07/28 05:22:48;;;;;;;21.30;5.13;;;;;;;15.89;100.00;95678.59;5068978;28;20415;-76
2021/07/28 05:25:14;;;;;;;6.93;4.60;;;;;;;15.90;100.00;95681.06;5068522;28;20490;-76
2021/07/28 05:27:41;;;;;;;5.28;4.75;;;;;;;15.93;100.00;95682.59;5070298;28;20868;-76
2021/07/28 05:30:07;;;;;;;5.25;4.68;;;;;;;16.02;100.00;95679.22;5070042;28;20415;-74
2021/07/28 05:32:33;;;;;;;6.80;4.55;;;;;;;16.00;100.00;95669.84;5068796;28;20510;-74
2021/07/28 05:34:58;;;;;;;5.90;4.77;;;;;;;16.07;100.00;95673.59;5066929;28;20858;-73
2021/07/28 05:37:25;;;;;;;6.88;4.72;;;;;;;16.15;100.00;95674.56;5048623;28;21001;-73
2021/07/28 05:39:51;;;;;;;5.00;4.50;;;;;;;16.17;100.00;95683.09;5050964;28;20512;-73
2021/07/28 05:42:17;;;;;;;6.53;4.78;;;;;;;16.25;100.00;95685.06;5053958;28;20447;-73
2021/07/28 05:44:43;;;;;;;5.53;4.43;;;;;;;16.07;100.00;95686.66;5053869;28;20405;-73
2021/07/28 05:47:09;;;;;;;5.68;4.47;;;;;;;16.08;100.00;95694.34;5052269;28;20559;-76
2021/07/28 05:49:34;;;;;;;5.95;4.88;;;;;;;16.15;100.00;95699.88;5052509;28;20982;-73
2021/07/28 05:52:00;;;;;;;5.07;4.35;;;;;;;16.28;100.00;95697.00;5072672;28;20458;-74
2021/07/28 05:54:25;;;;;;;5.60;4.23;;;;;;;16.27;100.00;95697.97;5072224;28;20422;-73
2021/07/28 05:56:52;;;;;;;6.13;4.80;;;;;;;16.21;100.00;95699.34;5073500;28;20815;-73
2021/07/28 05:59:17;;;;;;;6.15;4.47;;;;;;;16.25;100.00;95695.50;5063269;28;20413;-73
2021/07/28 06:01:43;;;;;;;5.80;4.32;;;;;;;16.25;100.00;95703.34;5052154;28;20424;-73
2021/07/28 06:04:09;;;;;;;6.53;4.30;;;;;;;16.25;100.00;95705.13;5053696;28;20417;-73
2021/07/28 06:06:34;;;;;;;5.77;4.60;;;;;;;16.16;100.00;95694.50;5051977;28;20431;-73
2021/07/28 06:09:00;;;;;;;8.03;4.83;;;;;;;16.20;100.00;95695.06;5052317;28;20424;-73
2021/07/28 06:11:25;;;;;;;6.47;4.57;;;;;;;16.17;100.00;95698.78;5053443;28;20603;-73
2021/07/28 06:13:52;;;;;;;7.15;4.93;;;;;;;16.18;100.00;95707.44;5052023;28;20421;-73
2021/07/28 06:16:18;;;;;;;7.10;5.05;;;;;;;16.13;100.00;95714.84;5051981;28;20410;-73
2021/07/28 06:18:43;;;;;;;8.13;4.57;;;;;;;16.14;100.00;95719.13;5053283;28;20783;-73
2021/07/28 06:21:09;;;;;;;8.27;4.67;;;;;;;16.14;100.00;95719.94;5052009;28;20512;-73
2021/07/28 06:23:35;;;;;;;8.00;4.68;;;;;;;16.06;100.00;95718.97;5065984;28;20428;-73
2021/07/28 06:26:00;;;;;;;7.40;4.80;;;;;;;16.06;100.00;95713.75;5073047;28;20418;-72
2021/07/28 06:28:26;;;;;;;8.82;4.88;;;;;;;16.08;100.00;95717.03;5069835;28;20423;-73
2021/07/28 06:30:53;;;;;;;6.80;4.90;;;;;;;16.23;100.00;95717.50;5052940;28;20444;-73
2021/07/28 06:33:19;;;;;;;5.90;4.72;;;;;;;16.23;100.00;95707.03;5053365;28;20787;-73
2021/07/28 06:35:44;;;;;;;6.97;4.88;;;;;;;16.20;100.00;95711.59;5051627;28;20451;-73
2021/07/28 06:38:10;;;;;;;7.45;5.03;;;;;;;16.29;100.00;95715.19;5051570;28;20420;-73
2021/07/28 06:40:35;;;;;;;8.23;4.90;;;;;;;16.27;100.00;95719.69;5053431;28;20486;-73
2021/07/28 06:43:01;;;;;;;8.80;5.33;;;;;;;16.32;100.00;95732.41;5052792;28;20413;-73
2021/07/28 06:45:26;;;;;;;12.17;5.30;;;;;;;16.24;100.00;95729.59;5052757;28;20994;-73
2021/07/28 06:47:53;;;;;;;7.93;5.22;;;;;;;16.27;100.00;95722.31;5051644;28;20418;-73
2021/07/28 06:50:19;;;;;;;8.38;5.75;;;;;;;16.14;100.00;95722.56;5052366;28;20479;-74
2021/07/28 06:52:45;;;;;;;5.47;4.88;;;;;;;16.13;100.00;95726.13;5051472;28;20421;-74
2021/07/28 06:55:11;;;;;;;7.17;4.90;;;;;;;16.21;100.00;95720.25;5052611;28;20428;-73
2021/07/28 06:57:37;;;;;;;7.55;4.88;;;;;;;16.36;100.00;95716.31;5052686;28;20444;-73
2021/07/28 07:00:05;;;;;;;9.93;5.13;;;;;;;16.28;100.00;95726.59;5052076;28;20436;-69
2021/07/28 07:02:31;;;;;;;7.75;5.13;;;;;;;16.30;100.00;95729.06;5057824;28;20457;-72
2021/07/28 07:04:58;;;;;;;9.82;5.25;;;;;;;16.41;100.00;95715.91;5072976;28;20415;-71
2021/07/28 07:07:23;;;;;;;7.93;5.45;;;;;;;16.36;100.00;95710.25;5072554;28;20412;-71
2021/07/28 07:09:49;;;;;;;7.43;4.63;;;;;;;16.43;100.00;95712.22;5072871;28;20465;-71
2021/07/28 07:12:14;;;;;;;6.93;5.27;;;;;;;16.51;100.00;95716.75;5082176;22;20433;-76
2021/07/28 07:14:40;;;;;;;9.18;5.32;;;;;;;16.46;100.00;95721.56;5052541;28;20484;-76
2021/07/28 07:17:06;;;;;;;6.55;5.50;;;;;;;16.59;100.00;95716.91;5052129;28;20516;-76
2021/07/28 07:19:31;;;;;;;7.30;5.40;;;;;;;16.62;100.00;95727.13;5052261;28;20925;-76
2021/07/28 07:21:58;;;;;;;6.10;5.00;;;;;;;16.72;100.00;95731.53;5054333;28;20492;-76
2021/07/28 07:24:23;;;;;;;7.85;5.47;;;;;;;16.76;100.00;95733.78;5071062;28;20901;-76
2021/07/28 07:26:49;;;;;;;6.97;5.23;;;;;;;16.88;100.00;95743.16;5072061;28;20466;-76
2021/07/28 07:29:14;;;;;;;8.02;4.90;;;;;;;16.94;100.00;95739.16;5070479;28;20486;-75
2021/07/28 07:31:40;;;;;;;6.73;5.23;;;;;;;16.95;100.00;95740.84;5070938;28;20411;-76
2021/07/28 07:34:05;;;;;;;7.23;5.47;;;;;;;16.91;100.00;95739.44;5072113;28;20424;-76
2021/07/28 07:36:31;;;;;;;6.07;4.90;;;;;;;16.93;100.00;95734.91;5071914;28;20491;-76
2021/07/28 07:38:57;;;;;;;7.43;5.38;;;;;;;16.93;100.00;95745.34;5070479;28;20788;-76
2021/07/28 07:41:23;;;;;;;6.53;5.07;;;;;;;16.97;100.00;95748.53;5072153;28;20412;-76
2021/07/28 07:43:48;;;;;;;8.07;5.13;;;;;;;16.95;100.00;95743.44;5071625;28;20442;-77
2021/07/28 07:46:14;;;;;;;7.77;5.23;;;;;;;16.98;100.00;95751.00;5071742;28;20414;-77
2021/07/28 07:48:39;;;;;;;8.18;5.25;;;;;;;17.09;100.00;95748.28;5071810;28;20422;-76
2021/07/28 07:51:05;;;;;;;6.47;5.20;;;;;;;17.14;100.00;95751.31;5072102;28;20734;-76
2021/07/28 07:53:30;;;;;;;8.07;5.10;;;;;;;17.02;100.00;95747.19;5070486;28;20412;-77
2021/07/28 07:55:58;;;;;;;7.40;5.43;;;;;;;17.27;100.00;95744.97;5071898;28;20940;-75
2021/07/28 07:58:23;;;;;;;6.45;5.40;;;;;;;17.31;100.00;95747.16;5069903;28;20816;-76
2021/07/28 08:00:49;;;;;;;6.10;4.87;;;;;;;17.38;100.00;95747.44;5052564;28;20421;-75
2021/07/28 08:03:14;;;;;;;13.80;5.13;;;;;;;17.40;100.00;95754.19;5051787;28;20751;-77
2021/07/28 08:05:40;;;;;;;8.10;5.07;;;;;;;17.30;100.00;95747.31;5051923;28;20417;-75
2021/07/28 08:08:06;;;;;;;7.32;5.13;;;;;;;17.31;100.00;95752.41;5051166;28;20493;-76
2021/07/28 08:10:31;;;;;;;7.22;4.97;;;;;;;17.39;100.00;95744.69;5051561;28;20806;-76
2021/07/28 08:12:58;;;;;;;6.33;4.80;;;;;;;17.34;100.00;95743.44;5050304;28;20915;-77
2021/07/28 08:15:24;;;;;;;5.82;5.10;;;;;;;17.41;100.00;95742.75;5051559;28;20421;-76
2021/07/28 08:17:49;;;;;;;8.30;4.93;;;;;;;17.46;100.00;95744.13;5051321;28;20426;-77
2021/07/28 08:20:15;;;;;;;8.53;5.30;;;;;;;17.48;100.00;95732.56;5051232;28;20464;-77
2021/07/28 08:22:40;;;;;;;6.00;5.40;;;;;;;17.56;100.00;95732.69;5050151;28;20436;-76
2021/07/28 08:25:07;;;;;;;5.57;4.57;;;;;;;17.58;100.00;95725.53;5050905;28;20467;-77
2021/07/28 08:27:32;;;;;;;8.25;5.40;;;;;;;17.65;98.99;95738.88;5049590;28;20810;-76
2021/07/28 08:29:59;;;;;;;9.65;5.78;;;;;;;17.54;98.68;95733.78;5050601;28;20443;-77
2021/07/28 08:32:25;;;;;;;6.45;5.07;;;;;;;17.67;97.26;95732.53;5049633;28;20413;-77
2021/07/28 08:34:50;;;;;;;7.57;5.47;;;;;;;17.56;98.75;95731.84;5049909;28;20988;-77
2021/07/28 08:37:16;;;;;;;5.63;5.00;;;;;;;17.44;100.00;95735.59;5049288;28;20949;-77
2021/07/28 08:39:41;;;;;;;11.48;5.13;;;;;;;17.32;100.00;95732.31;5051078;28;20425;-76
2021/07/28 08:42:08;;;;;;;8.53;6.30;;;;;;;17.46;100.00;95737.09;5052471;28;20607;-77
2021/07/28 08:44:35;;;;;;;5.82;5.10;;;;;;;17.57;100.00;95742.19;5051092;28;20409;-77
2021/07/28 08:47:02;;;;;;;7.70;5.50;;;;;;;17.78;99.65;95731.56;5050625;28;20416;-76
2021/07/28 08:49:28;;;;;;;11.93;5.18;;;;;;;17.80;99.14;95736.69;5050836;28;20508;-76
2021/07/28 08:51:54;;;;;;;8.83;5.83;;;;;;;17.90;100.00;95726.97;5051999;28;20492;-71
2021/07/28 08:54:19;;;;;;;15.07;7.18;;;;;;;17.97;99.25;95725.44;5055264;28;20425;-77
2021/07/28 08:56:46;;;;;;;10.77;6.40;;;;;;;18.23;99.32;95724.81;5054639;28;20483;-78
2021/07/28 08:59:26;;;;;;;11.13;7.00;;;;;;;18.33;98.21;95717.72;5061432;28;20436;-77
2021/07/28 09:01:52;;;;;;;7.93;5.78;;;;;;;18.34;96.30;95720.19;5070843;28;20495;-77
2021/07/28 09:04:19;;;;;;;7.27;5.87;;;;;;;18.58;95.77;95722.31;5069687;28;20510;-77
2021/07/28 09:06:45;;;;;;;7.53;6.20;;;;;;;18.88;93.51;95716.91;5070446;28;20420;-77
2021/07/28 09:09:10;;;;;;;7.35;5.97;;;;;;;18.82;94.25;95713.06;5070432;28;20407;-77
2021/07/28 09:11:50;;;;;;;8.48;5.43;;;;;;;19.02;88.78;95711.97;5070692;28;20503;-77
2021/07/28 09:14:19;;;;;;;8.07;5.63;;;;;;;18.59;91.15;95712.63;5072313;28;20516;-76
2021/07/28 09:16:44;;;;;;;6.28;5.32;;;;;;;18.41;94.14;95720.44;5074535;28;20411;-78
2021/07/28 09:19:10;;;;;;;8.93;5.57;;;;;;;18.45;93.65;95718.38;5074928;28;20442;-76
2021/07/28 09:21:36;;;;;;;7.83;5.57;;;;;;;18.79;91.98;95729.94;5074351;28;20911;-77
2021/07/28 09:24:09;;;;;;;7.72;5.47;;;;;;;18.70;92.58;95725.53;5074683;28;20415;-77
2021/07/28 09:26:42;;;;;;;8.40;5.25;;;;;;;18.96;92.20;95725.69;5074311;28;20415;-78
2021/07/28 09:29:09;;;;;;;10.15;5.80;;;;;;;18.80;91.15;95733.38;5066623;28;20435;-76
2021/07/28 09:31:37;;;;;;;7.88;5.20;;;;;;;19.06;91.60;95731.69;5054350;28;20964;-76
2021/07/28 09:34:28;;;;;;;6.90;5.47;;;;;;;19.09;90.04;95741.88;5052812;28;20424;-77
2021/07/28 09:36:56;;;;;;;6.57;4.97;;;;;;;19.31;89.77;95737.16;5054323;28;20783;-77
2021/07/28 09:39:22;;;;;;;8.13;5.50;;;;;;;19.45;88.94;95743.69;5054289;28;20421;-77
2021/07/28 09:41:48;;;;;;;7.78;5.35;;;;;;;19.34;88.72;95739.47;5054434;28;20405;-77
2021/07/28 09:44:23;;;;;;;7.53;4.60;;;;;;;19.49;90.40;95743.22;5054343;28;20512;-77
2021/07/28 09:46:50;;;;;;;7.57;5.38;;;;;;;19.39;86.28;95741.66;5053894;28;20421;-77
2021/07/28 09:49:18;;;;;;;6.43;5.20;;;;;;;19.44;88.27;95742.03;5054044;28;20933;-78
2021/07/28 09:51:46;;;;;;;6.85;5.72;;;;;;;19.56;86.93;95741.63;5052810;28;20833;-78
2021/07/28 09:54:13;;;;;;;11.00;4.90;;;;;;;19.65;84.17;95747.78;5054068;28;20840;-76
2021/07/28 09:56:44;;;;;;;6.85;4.60;;;;;;;19.45;87.26;95746.31;5053719;28;20409;-77
2021/07/28 09:59:10;;;;;;;5.15;4.45;;;;;;;19.17;85.35;95750.81;5061195;28;20445;-76
2021/07/28 10:01:36;;;;;;;10.47;5.17;;;;;;;18.92;88.85;95744.50;5074024;28;20431;-76
2021/07/28 10:04:05;;;;;;;6.68;4.72;;;;;;;18.89;88.02;95736.91;5073676;28;20408;-76
2021/07/28 10:06:38;;;;;;;6.40;4.63;;;;;;;18.70;88.55;95748.34;5072128;28;20427;-75
2021/07/28 10:09:05;;;;;;;7.43;5.05;;;;;;;18.75;89.57;95746.13;5073736;28;20486;-77
2021/07/28 10:11:33;;;;;;;5.82;4.68;;;;;;;18.85;90.72;95746.88;5073386;28;20411;-77
2021/07/28 10:14:00;;;;;;;5.32;4.65;;;;;;;18.85;88.69;95745.09;5072027;28;20435;-77
2021/07/28 10:16:26;;;;;;;5.47;4.85;;;;;;;18.79;90.31;95747.47;5073151;28;20443;-78
2021/07/28 10:18:53;;;;;;;7.95;5.75;;;;;;;18.93;89.50;95746.16;5073285;28;20905;-78
2021/07/28 10:21:19;;;;;;;7.32;5.03;;;;;;;18.59;89.72;95746.72;5073345;28;20824;-77
2021/07/28 10:23:45;;;;;;;5.88;5.07;;;;;;;18.85;89.62;95745.09;5073212;28;20407;-77
2021/07/28 10:26:13;;;;;;;6.32;4.80;;;;;;;19.14;87.32;95745.88;5072103;28;20403;-78
2021/07/28 10:28:46;;;;;;;6.68;4.70;;;;;;;19.40;84.90;95740.69;5068041;28;20414;-78
2021/07/28 10:31:12;;;;;;;8.35;5.28;;;;;;;19.95;83.55;95746.56;5054332;28;20416;-77
2021/07/28 10:33:44;;;;;;;5.28;4.75;;;;;;;20.09;80.18;95749.56;5071518;28;20416;-77
2021/07/28 10:36:10;;;;;;;9.43;4.90;;;;;;;20.31;78.25;95746.41;5071603;28;20427;-77
2021/07/28 10:38:50;;;;;;;5.97;4.65;;;;;;;20.69;78.91;95750.41;5071144;28;20420;-77
2021/07/28 10:41:48;;;;;;;5.63;4.25;;;;;;;20.97;76.80;95737.81;5071905;28;20444;-77
2021/07/28 10:44:17;;;;;;;7.03;5.28;;;;;;;21.18;73.51;95736.53;5072824;28;20411;-76
2021/07/28 10:47:19;;;;;;;7.25;4.78;;;;;;;21.34;72.83;95741.84;5072652;28;21087;-77
2021/07/28 10:49:49;;;;;;;6.45;4.32;;;;;;;21.40;71.91;95740.38;5067914;28;20424;-77
2021/07/28 10:52:39;;;;;;;8.35;4.57;;;;;;;21.26;71.33;95726.00;5052408;28;20418;-77
2021/07/28 10:55:20;;;;;;;5.78;4.22;;;;;;;20.77;73.97;95724.13;5037474;28;20433;-78
2021/07/28 10:58:18;;;;;;;9.13;4.55;;;;;;;21.06;75.65;95716.75;5051412;28;20421;-77
2021/07/28 11:00:58;;;;;;;5.30;4.40;;;;;;;21.42;73.31;95720.78;5052670;28;20413;-76
2021/07/28 11:03:37;;;;;;;6.32;4.57;;;;;;;21.41;73.65;95721.78;5051284;28;20417;-77
2021/07/28 11:06:27;;;;;;;6.40;4.80;;;;;;;21.33;72.44;95727.03;5052415;28;20421;-76
2021/07/28 11:08:53;;;;;;;4.93;4.13;;;;;;;21.61;71.39;95727.50;5042041;28;20913;-76
2021/07/28 11:11:28;;;;;;;6.68;4.85;;;;;;;21.45;72.42;95725.72;5052569;28;20428;-76
2021/07/28 11:13:58;;;;;;;5.30;4.38;;;;;;;21.64;74.14;95721.09;5052241;28;20799;-77
2021/07/28 11:16:26;;;;;;;6.78;4.70;;;;;;;21.79;71.44;95719.44;5052669;28;20467;-78
2021/07/28 11:18:51;;;;;;;6.50;4.37;;;;;;;21.73;70.79;95720.13;5050905;28;20441;-77
2021/07/28 11:21:17;;;;;;;8.10;4.57;;;;;;;;;;5052223;28;20413;-77
2021/07/28 11:23:49;;;;;;;8.20;4.73;;;;;;;22.16;70.04;95712.81;5051975;28;20436;-77
2021/07/28 11:26:19;;;;;;;6.15;4.32;;;;;;;21.86;74.79;95709.06;5056405;28;20423;-77
2021/07/28 11:28:45;;;;;;;9.18;4.13;;;;;;;21.89;69.62;95727.19;5071437;28;20904;-77